createdAt,value
2023-05-17T00:04:59.338Z,7.2
2023-05-17T00:10:53.791Z,8.4
2023-05-17T00:16:04.436Z,7.2
2023-05-17T00:21:53.779Z,8.4
2023-05-17T00:27:19.996Z,9.6
2023-05-17T00:32:53.388Z,9.6
2023-05-17T00:38:39.079Z,5.9
2023-05-17T00:43:53.885Z,5.9
2023-05-17T00:49:27.197Z,8.4
2023-05-17T00:55:14.002Z,7.2
2023-05-17T01:00:52.328Z,9.6
2023-05-17T01:06:26.608Z,8.4
2023-05-17T01:11:37.717Z,9.6
2023-05-17T01:17:14.914Z,8.4
2023-05-17T01:22:51.128Z,7.2
2023-05-17T01:28:40.906Z,7.2
2023-05-17T01:34:04.965Z,8.4
2023-05-17T01:39:39.326Z,11.9
2023-05-17T01:45:23.087Z,10.7
2023-05-17T01:51:01.903Z,8.4
2023-05-17T01:56:29.413Z,9.6
2023-05-17T02:02:07.264Z,8.4
2023-05-17T02:07:19.502Z,7.2
2023-05-17T02:18:53.489Z,9.6
2023-05-17T02:24:04.838Z,9.6
2023-05-17T02:30:00.868Z,9.6
2023-05-17T02:35:16.682Z,8.4
2023-05-17T02:40:41.843Z,9.6
2023-05-17T02:46:29.311Z,10.7
2023-05-17T02:52:13.882Z,16.8
2023-05-17T02:57:38.177Z,13.2
2023-05-17T03:03:07.393Z,11.9
2023-05-17T03:08:45.192Z,11.9
2023-05-17T03:14:14.531Z,11.9
2023-05-17T03:19:41.481Z,10.7
2023-05-17T03:25:35.734Z,10.7
2023-05-17T03:31:06.923Z,13.2
2023-05-17T03:36:28.852Z,15.6
2023-05-17T03:42:00.745Z,15.6
2023-05-17T03:47:31.989Z,13.2
2023-05-17T03:53:19.248Z,11.9
2023-05-17T03:58:53.767Z,11.9
2023-05-17T04:04:23.188Z,10.7
2023-05-17T04:09:49.639Z,14.4
2023-05-17T04:15:38.860Z,10.7
2023-05-17T04:21:01.196Z,11.9
2023-05-17T04:26:37.149Z,13.2
2023-05-17T04:32:20.507Z,13.2
2023-05-17T04:49:03.643Z,16.8
2023-05-17T04:54:34.658Z,15.6
2023-05-17T05:00:13.331Z,15.6
2023-05-17T05:05:38.166Z,15.6
2023-05-17T05:11:24.547Z,11.9
2023-05-17T05:16:56.612Z,13.2
2023-05-17T05:22:15.808Z,16.8
2023-05-17T05:33:17.498Z,14.4
2023-05-17T05:39:14.312Z,13.2
2023-05-17T05:44:22.529Z,14.4
2023-05-17T05:50:13.416Z,16.8
2023-05-17T05:55:43.397Z,15.6
2023-05-17T06:01:06.252Z,18
2023-05-17T06:12:12.497Z,18
2023-05-17T06:23:48.076Z,16.8
2023-05-17T06:29:00.800Z,16.8
2023-05-17T06:46:04.929Z,18
2023-05-17T06:51:16.912Z,16.8
2023-05-17T06:57:07.217Z,16.8
2023-05-17T07:02:36.098Z,15.6
2023-05-17T07:08:04.388Z,16.8
2023-05-17T07:13:51.147Z,21.5
2023-05-17T07:19:14.243Z,21.5
2023-05-17T07:24:53.777Z,21.5
2023-05-17T07:30:40.315Z,21.5
2023-05-17T07:36:19.706Z,15.6
2023-05-17T07:41:44.619Z,15.6
2023-05-17T07:52:55.231Z,18
2023-05-17T07:58:22.803Z,21.5
2023-05-17T08:04:15.337Z,21.5
2023-05-17T08:09:37.090Z,21.5
2023-05-17T08:14:58.020Z,26.4
2023-05-17T08:20:54.158Z,21.5
2023-05-17T08:31:56.276Z,20.4
2023-05-17T08:37:21.068Z,21.5
2023-05-17T08:43:02.186Z,19.2
2023-05-17T08:48:53.241Z,16.8
2023-05-17T08:54:05.966Z,14.4
2023-05-17T09:05:13.885Z,18
2023-05-17T09:10:47.737Z,14.4
2023-05-17T09:16:25.024Z,14.4
2023-05-17T09:22:24.655Z,15.6
2023-05-17T10:12:43.984Z,13.2
2023-05-17T10:29:29.492Z,15.6
2023-05-17T13:28:48.550Z,14.4
2023-05-17T13:40:00.289Z,15.6
2023-05-17T13:45:54.185Z,14.4
2023-05-17T13:51:20.849Z,13.2
2023-05-17T13:57:04.912Z,15.6
2023-05-17T14:07:55.803Z,15.6
2023-05-17T14:13:49.071Z,16.8
2023-05-17T14:24:55.812Z,15.6
2023-05-17T14:30:28.554Z,15.6
2023-05-17T14:36:15.802Z,15.6
2023-05-17T14:41:28.573Z,18
2023-05-17T14:47:04.443Z,16.8
2023-05-17T14:52:45.529Z,15.6
2023-05-17T14:58:14.508Z,18
2023-05-17T15:04:02.205Z,14.4
2023-05-17T15:09:34.463Z,16.8
2023-05-17T15:15:21.075Z,14.4
2023-05-17T15:20:50.195Z,13.2
2023-05-17T15:26:16.836Z,14.4
2023-05-17T15:31:44.912Z,14.4
2023-05-17T15:37:31.784Z,14.4
2023-05-17T15:43:03.573Z,15.6
2023-05-17T15:48:53.210Z,14.4
2023-05-17T15:54:12.468Z,14.4
2023-05-17T16:05:26.339Z,15.6
2023-05-17T16:11:02.114Z,10.7
2023-05-17T16:22:19.489Z,13.2
2023-05-17T16:33:24.540Z,10.7
2023-05-17T16:39:02.499Z,15.6
2023-05-17T16:50:21.137Z,15.6
2023-05-17T16:55:54.470Z,16.8
2023-05-17T17:01:24.703Z,15.6
2023-05-17T17:12:24.487Z,14.4
2023-05-17T17:18:08.490Z,14.4
2023-05-17T17:23:24.736Z,14.4
2023-05-17T17:29:18.170Z,14.4
2023-05-17T17:34:40.018Z,14.4
2023-05-17T17:40:33.400Z,14.4
2023-05-17T17:46:02.040Z,13.2
2023-05-17T17:51:20.936Z,11.9
2023-05-17T17:57:06.950Z,13.2
2023-05-17T18:02:36.647Z,13.2
2023-05-17T18:08:18.131Z,11.9
2023-05-17T18:13:55.846Z,11.9
2023-05-17T18:19:22.967Z,10.7
2023-05-17T18:24:54.121Z,11.9
2023-05-17T18:30:23.518Z,9.6
2023-05-17T18:36:11.760Z,10.7
2023-05-17T18:41:27.281Z,11.9
2023-05-17T18:47:17.588Z,10.7
2023-05-17T18:52:38.504Z,5.9
2023-05-17T19:03:58.427Z,7.2
2023-05-17T19:14:58.636Z,5.9
2023-05-17T19:20:33.588Z,7.2
2023-05-17T19:25:58.352Z,4.8
2023-05-17T19:31:55.737Z,8.4
2023-05-17T19:37:29.392Z,9.6
2023-05-17T19:48:21.037Z,11.9
2023-05-17T19:54:01.726Z,10.7
2023-05-17T19:59:43.761Z,10.7
2023-05-17T20:04:56.885Z,13.2
2023-05-17T20:10:51.097Z,10.7
2023-05-17T20:16:08.672Z,8.4
2023-05-17T20:21:49.672Z,8.4
2023-05-17T20:27:41.302Z,8.4
2023-05-17T20:33:10.909Z,7.2
2023-05-17T20:44:19.718Z,11.9
2023-05-17T20:49:48.921Z,11.9
2023-05-17T20:55:06.973Z,13.2
2023-05-17T21:00:40.237Z,13.2
2023-05-17T21:06:19.862Z,13.2
2023-05-17T21:11:49.905Z,9.6
2023-05-17T21:17:26.959Z,13.2
2023-05-17T21:23:01.969Z,14.4
2023-05-17T21:28:41.173Z,14.4
2023-05-17T21:34:20.092Z,14.4
2023-05-17T21:56:49.655Z,11.9
